createdAt,value
2023-05-14T00:01:46.517Z,102186.44
2023-05-14T00:04:14.594Z,102164.84
2023-05-14T00:06:42.765Z,102184.81
2023-05-14T00:09:10.737Z,102170.22
2023-05-14T00:11:38.903Z,102162.69
2023-05-14T00:14:08.307Z,102192.94
2023-05-14T00:16:36.513Z,102187.69
2023-05-14T00:19:04.610Z,102185.94
2023-05-14T00:21:32.940Z,102195.94
2023-05-14T00:24:00.922Z,102187.88
2023-05-14T00:26:28.997Z,102195.16
2023-05-14T00:28:56.904Z,102181.50
2023-05-14T00:31:26.401Z,102177.69
2023-05-14T00:33:54.471Z,102194.47
2023-05-14T00:36:22.513Z,102197.16
2023-05-14T00:38:50.787Z,102192.84
2023-05-14T00:41:18.754Z,102193.66
2023-05-14T00:43:46.746Z,102199.03
2023-05-14T00:46:16.440Z,102191.03
2023-05-14T00:48:46.148Z,102191.91
2023-05-14T00:51:14.621Z,102193.84
2023-05-14T00:53:43.063Z,102197.47
2023-05-14T00:56:11.612Z,102195.66
2023-05-14T00:58:39.648Z,102195.72
2023-05-14T01:01:07.888Z,102193.25
2023-05-14T01:03:37.033Z,102194.88
2023-05-14T01:06:15.672Z,102198.53
2023-05-14T01:08:51.892Z,102194.97
2023-05-14T01:11:23.779Z,102196.78
2023-05-14T01:14:04.910Z,102192.38
2023-05-14T01:16:35.235Z,102187.06
2023-05-14T01:19:06.108Z,102190.75
2023-05-14T01:21:44.624Z,102181.13
2023-05-14T01:24:12.644Z,102185.56
2023-05-14T01:26:41.001Z,102181.13
2023-05-14T01:29:14.946Z,102182.00
2023-05-14T01:31:46.722Z,102192.84
2023-05-14T01:34:15.979Z,102184.03
2023-05-14T01:36:45.934Z,102177.25
2023-05-14T01:39:16.019Z,102186.97
2023-05-14T01:41:45.151Z,102180.41
2023-05-14T01:44:13.906Z,102188.78
2023-05-14T01:46:41.942Z,102186.66
2023-05-14T01:49:09.973Z,102188.03
2023-05-14T01:51:37.935Z,102187.16
2023-05-14T01:54:07.393Z,102190.81
2023-05-14T01:56:35.404Z,102172.63
2023-05-14T01:59:03.596Z,102199.94
2023-05-14T02:01:31.747Z,102194.63
2023-05-14T02:04:01.048Z,102190.22
2023-05-14T02:06:29.150Z,102193.84
2023-05-14T02:08:57.396Z,102200.22
2023-05-14T02:11:26.802Z,102200.25
2023-05-14T02:13:54.810Z,102198.50
2023-05-14T02:16:22.914Z,102196.78
2023-05-14T02:18:52.991Z,102201.31
2023-05-14T02:21:21.001Z,102200.34
2023-05-14T02:23:49.573Z,102195.81
2023-05-14T02:26:17.850Z,102195.81
2023-05-14T02:28:47.176Z,102188.72
2023-05-14T02:31:17.587Z,102195.94
2023-05-14T02:33:45.852Z,102198.63
2023-05-14T02:36:13.840Z,102192.38
2023-05-14T02:38:41.872Z,102193.41
2023-05-14T02:41:09.820Z,102200.44
2023-05-14T02:43:37.761Z,102195.16
2023-05-14T02:46:07.307Z,102196.88
2023-05-14T02:48:35.391Z,102195.06
2023-05-14T02:51:03.557Z,102199.66
2023-05-14T02:53:31.590Z,102196.22
2023-05-14T02:55:59.647Z,102197.84
2023-05-14T02:58:28.410Z,102197.91
2023-05-14T03:00:57.211Z,102192.75
2023-05-14T03:03:27.145Z,102200.59
2023-05-14T03:05:55.571Z,102201.59
2023-05-14T03:08:23.703Z,102172.94
2023-05-14T03:10:51.768Z,102197.91
2023-05-14T03:13:20.792Z,102205.97
2023-05-14T03:15:48.984Z,102203.28
2023-05-14T03:18:17.310Z,102195.44
2023-05-14T03:20:48.700Z,102194.28
2023-05-14T03:23:16.807Z,102196.97
2023-05-14T03:25:44.883Z,102199.50
2023-05-14T03:28:13.057Z,102181.22
2023-05-14T03:30:41.198Z,102207.13
2023-05-14T03:33:09.399Z,102180.56
2023-05-14T03:35:37.485Z,102196.84
2023-05-14T03:38:07.521Z,102197.94
2023-05-14T03:40:35.775Z,102195.94
2023-05-14T03:43:03.868Z,102196.53
2023-05-14T03:45:32.028Z,102198.91
2023-05-14T03:48:00.467Z,102197.69
2023-05-14T03:50:28.730Z,102185.75
2023-05-14T03:52:56.761Z,102179.25
2023-05-14T03:55:26.148Z,102159.47
2023-05-14T03:57:54.080Z,102182.31
2023-05-14T04:00:22.853Z,102181.16
2023-05-14T04:02:52.878Z,102181.84
2023-05-14T04:05:21.209Z,102180.66
2023-05-14T04:07:49.305Z,102177.66
2023-05-14T04:10:17.327Z,102179.25
2023-05-14T04:12:46.897Z,102174.56
2023-05-14T04:15:15.268Z,102168.00
2023-05-14T04:17:44.119Z,102170.38
2023-05-14T04:20:14.002Z,102165.00
2023-05-14T04:22:42.034Z,102162.88
2023-05-14T04:25:10.377Z,102160.75
2023-05-14T04:27:38.284Z,102165.00
2023-05-14T04:30:09.517Z,102168.25
2023-05-14T04:32:37.902Z,102155.75
2023-05-14T04:35:07.061Z,102159.78
2023-05-14T04:37:36.451Z,102165.72
2023-05-14T04:40:04.814Z,102157.44
2023-05-14T04:42:33.079Z,102152.69
2023-05-14T04:45:01.127Z,102151.44
2023-05-14T04:47:30.915Z,102162.75
2023-05-14T04:49:58.953Z,102160.75
2023-05-14T04:52:27.296Z,102157.72
2023-05-14T04:54:55.357Z,102152.06
2023-05-14T04:57:23.355Z,102158.13
2023-05-14T04:59:51.342Z,102152.63
2023-05-14T05:02:19.457Z,102155.84
2023-05-14T05:04:48.859Z,102154.78
2023-05-14T05:07:16.875Z,102159.97
2023-05-14T05:09:44.963Z,102158.81
2023-05-14T05:12:12.922Z,102154.19
2023-05-14T05:14:40.797Z,102149.47
2023-05-14T05:17:08.726Z,102126.78
2023-05-14T05:19:43.575Z,102142.88
2023-05-14T05:22:13.759Z,102145.16
2023-05-14T05:24:41.784Z,102144.09
2023-05-14T05:27:09.965Z,102148.41
2023-05-14T05:29:38.336Z,102132.75
2023-05-14T05:32:07.436Z,102146.25
2023-05-14T05:34:36.064Z,102151.44
2023-05-14T05:37:05.957Z,102094.03
2023-05-14T05:39:35.788Z,102142.81
2023-05-14T05:42:03.887Z,102152.72
2023-05-14T05:44:32.058Z,102138.03
2023-05-14T05:47:00.282Z,102136.97
2023-05-14T05:49:28.258Z,102141.31
2023-05-14T05:51:56.269Z,102146.50
2023-05-14T05:54:24.989Z,102140.88
2023-05-14T05:56:54.424Z,102136.38
2023-05-14T05:59:22.468Z,102141.44
2023-05-14T06:01:50.516Z,102139.38
2023-05-14T06:04:18.477Z,102137.34
2023-05-14T06:06:46.624Z,102136.25
2023-05-14T06:09:14.648Z,102056.84
2023-05-14T06:11:42.696Z,102134.94
2023-05-14T06:14:12.111Z,102141.97
2023-05-14T06:16:40.230Z,102147.13
2023-05-14T06:19:08.482Z,102145.94
2023-05-14T06:21:36.712Z,102146.69
2023-05-14T06:24:05.054Z,102144.75
2023-05-14T06:26:33.017Z,102142.78
2023-05-14T06:29:01.130Z,102140.75
2023-05-14T06:31:30.628Z,102140.66
2023-05-14T06:33:58.572Z,102134.19
2023-05-14T06:36:26.562Z,102128.53
2023-05-14T06:38:54.522Z,102137.41
2023-05-14T06:41:22.681Z,102141.72
2023-05-14T06:43:50.837Z,102144.19
2023-05-14T06:46:18.828Z,102133.63
2023-05-14T06:48:48.279Z,102136.63
2023-05-14T06:51:16.372Z,102127.53
2023-05-14T06:53:44.340Z,102136.38
2023-05-14T06:56:13.627Z,102140.84
2023-05-14T06:58:41.599Z,102140.63
2023-05-14T07:01:09.572Z,102138.66
2023-05-14T07:03:37.593Z,102131.53
2023-05-14T07:06:07.926Z,102140.19
2023-05-14T07:08:36.063Z,102136.50
2023-05-14T07:11:04.213Z,102134.66
2023-05-14T07:13:32.169Z,102138.97
2023-05-14T07:16:00.481Z,102140.72
2023-05-14T07:18:28.911Z,102141.44
2023-05-14T07:20:57.073Z,102134.22
2023-05-14T07:23:26.444Z,102145.75
2023-05-14T07:25:54.456Z,102135.91
2023-05-14T07:28:22.520Z,102137.53
2023-05-14T07:30:50.574Z,102131.25
2023-05-14T07:33:18.561Z,102126.63
2023-05-14T07:35:46.724Z,102127.72
2023-05-14T07:38:14.833Z,102122.09
2023-05-14T07:40:44.467Z,102122.84
2023-05-14T07:43:12.831Z,102109.91
2023-05-14T07:45:40.872Z,102115.69
2023-05-14T07:48:09.103Z,102114.84
2023-05-14T07:50:38.337Z,102087.38
2023-05-14T07:53:06.313Z,102114.84
2023-05-14T07:55:34.317Z,102087.16
2023-05-14T07:58:03.819Z,102094.97
2023-05-14T08:00:31.949Z,102104.91
2023-05-14T08:03:00.221Z,102105.91
2023-05-14T08:05:28.568Z,102097.66
2023-05-14T08:07:56.574Z,102100.25
2023-05-14T08:10:25.016Z,102096.44
2023-05-14T08:12:53.173Z,102087.59
2023-05-14T08:15:23.098Z,102093.44
2023-05-14T08:17:51.670Z,102091.56
2023-05-14T08:20:20.012Z,102095.91
2023-05-14T08:22:48.047Z,102089.50
2023-05-14T08:25:16.042Z,102088.53
2023-05-14T08:27:43.969Z,102091.13
2023-05-14T08:30:12.680Z,102082.13
2023-05-14T08:32:42.515Z,102089.06
2023-05-14T08:35:10.939Z,102079.34
2023-05-14T08:37:38.955Z,102084.50
2023-05-14T08:40:08.730Z,102082.66
2023-05-14T08:42:40.462Z,102085.25
2023-05-14T08:45:16.795Z,102083.44
2023-05-14T08:47:50.484Z,102082.56
2023-05-14T08:50:21.886Z,102079.84
2023-05-14T08:52:51.476Z,102078.84
2023-05-14T08:55:20.075Z,102078.03
2023-05-14T08:57:48.349Z,102082.44
2023-05-14T09:00:17.001Z,102076.16
2023-05-14T09:02:48.840Z,102067.94
2023-05-14T09:05:19.948Z,102064.50
2023-05-14T09:07:48.109Z,102072.34
2023-05-14T09:10:17.380Z,102077.75
2023-05-14T09:12:45.560Z,102075.06
2023-05-14T09:15:13.892Z,102065.34
2023-05-14T09:17:42.109Z,102074.22
2023-05-14T09:20:14.120Z,102067.09
2023-05-14T09:22:43.017Z,102055.41
2023-05-14T09:25:12.515Z,102079.72
2023-05-14T09:27:40.766Z,102062.56
2023-05-14T09:30:10.881Z,102063.41
2023-05-14T09:32:40.928Z,102062.56
2023-05-14T09:35:18.471Z,102054.44
2023-05-14T09:37:48.048Z,102056.16
2023-05-14T09:40:17.218Z,102058.97
2023-05-14T09:42:45.781Z,102049.13
2023-05-14T09:45:13.830Z,102055.41
2023-05-14T09:47:42.138Z,102052.94
2023-05-14T09:50:10.714Z,102047.53
2023-05-14T09:52:40.349Z,102051.97
2023-05-14T09:55:09.263Z,102052.94
2023-05-14T09:57:37.320Z,102058.34
2023-05-14T10:00:06.789Z,102052.22
2023-05-14T10:02:38.941Z,102042.41
2023-05-14T10:05:09.488Z,102036.13
2023-05-14T10:07:43.607Z,102044.22
2023-05-14T10:10:16.437Z,102039.94
2023-05-14T10:12:50.425Z,102040.03
2023-05-14T10:15:23.061Z,102029.34
2023-05-14T10:17:56.887Z,102031.19
2023-05-14T10:20:27.176Z,102027.63
2023-05-14T10:22:57.325Z,102003.00
2023-05-14T10:25:25.814Z,102026.00
2023-05-14T10:27:54.665Z,102015.44
2023-05-14T10:30:24.097Z,102015.34
2023-05-14T10:33:07.547Z,102021.72
2023-05-14T10:35:57.645Z,102010.31
2023-05-14T10:38:29.515Z,102009.22
2023-05-14T10:40:59.904Z,102011.03
2023-05-14T10:43:29.461Z,102008.34
2023-05-14T10:45:58.697Z,102001.56
2023-05-14T10:48:27.153Z,101999.50
2023-05-14T10:50:56.585Z,101998.63
2023-05-14T10:53:34.674Z,101995.81
2023-05-14T10:56:07.469Z,101990.53
2023-05-14T10:58:38.234Z,101993.22
2023-05-14T11:01:08.452Z,101962.09
2023-05-14T11:03:43.068Z,101984.41
2023-05-14T11:06:13.087Z,101988.94
2023-05-14T11:08:42.984Z,101982.03
2023-05-14T11:11:11.695Z,101984.50
2023-05-14T11:13:39.771Z,101985.47
2023-05-14T11:16:21.833Z,101971.97
2023-05-14T11:18:55.841Z,101934.94
2023-05-14T11:21:24.209Z,101973.06
2023-05-14T11:23:55.546Z,101978.13
2023-05-14T11:26:25.084Z,101972.97
2023-05-14T11:28:53.169Z,101966.56
2023-05-14T11:31:24.192Z,101969.16
2023-05-14T11:33:53.418Z,101933.94
2023-05-14T11:36:21.701Z,101971.84
2023-05-14T11:38:51.537Z,101971.00
2023-05-14T11:41:23.071Z,101965.59
2023-05-14T11:43:51.593Z,101970.03
2023-05-14T11:46:19.808Z,101956.25
2023-05-14T11:48:48.420Z,101957.84
2023-05-14T11:51:16.430Z,101962.03
2023-05-14T11:53:45.961Z,101965.72
2023-05-14T11:56:13.937Z,101963.03
2023-05-14T11:58:49.182Z,101956.75
2023-05-14T12:01:17.401Z,101937.97
2023-05-14T12:03:45.614Z,101945.97
2023-05-14T12:06:13.774Z,101941.53
2023-05-14T12:08:41.736Z,101948.75
2023-05-14T12:11:10.118Z,101943.34
2023-05-14T12:13:38.189Z,101947.91
2023-05-14T12:16:07.891Z,101938.81
2023-05-14T12:18:36.104Z,101937.97
2023-05-14T12:21:05.134Z,101944.34
2023-05-14T12:23:33.845Z,101946.06
2023-05-14T12:26:06.362Z,101936.13
2023-05-14T12:28:37.720Z,101947.06
2023-05-14T12:31:07.696Z,101930.84
2023-05-14T12:33:35.754Z,101936.25
2023-05-14T12:38:36.978Z,101927.16
2023-05-14T12:41:05.283Z,101928.91
2023-05-14T12:43:33.312Z,101922.63
2023-05-14T12:46:01.388Z,101927.16
2023-05-14T12:48:30.843Z,101919.81
2023-05-14T12:50:58.832Z,101927.06
2023-05-14T12:53:26.869Z,101917.13
2023-05-14T12:55:55.980Z,101923.34
2023-05-14T12:58:24.098Z,101914.44
2023-05-14T13:00:52.190Z,101910.84
2023-05-14T13:03:21.175Z,101907.16
2023-05-14T13:05:51.767Z,101904.47
2023-05-14T13:08:21.579Z,101873.63
2023-05-14T13:10:49.600Z,101899.06
2023-05-14T13:13:17.766Z,101896.63
2023-05-14T13:15:46.727Z,101892.94
2023-05-14T13:18:14.870Z,101899.94
2023-05-14T13:20:43.371Z,101900.78
2023-05-14T13:23:12.857Z,101893.56
2023-05-14T13:25:41.022Z,101890.88
2023-05-14T13:28:10.087Z,101881.53
2023-05-14T13:30:38.172Z,101893.66
2023-05-14T13:33:06.811Z,101891.72
2023-05-14T13:35:35.646Z,101893.56
2023-05-14T13:38:03.774Z,101888.16
2023-05-14T13:40:33.151Z,101886.31
2023-05-14T13:43:01.242Z,101882.75
2023-05-14T13:45:29.272Z,101885.69
2023-05-14T13:47:57.487Z,101862.22
2023-05-14T13:50:25.578Z,101874.66
2023-05-14T13:52:53.730Z,101874.75
2023-05-14T13:55:21.710Z,101872.94
2023-05-14T13:57:51.203Z,101875.63
2023-05-14T14:00:19.904Z,101875.63
2023-05-14T14:02:47.932Z,101873.06
2023-05-14T14:05:16.186Z,101879.44
2023-05-14T14:07:44.191Z,101866.78
2023-05-14T14:10:12.324Z,101869.50
2023-05-14T14:12:40.939Z,101863.22
2023-05-14T14:15:11.806Z,101850.72
2023-05-14T14:17:41.773Z,101857.09
2023-05-14T14:20:10.548Z,101850.72
2023-05-14T14:22:38.981Z,101811.75
2023-05-14T14:25:08.450Z,101847.25
2023-05-14T14:27:38.726Z,101842.72
2023-05-14T14:30:09.641Z,101847.16
2023-05-14T14:32:42.167Z,101846.16
2023-05-14T14:35:10.624Z,101840.03
2023-05-14T14:37:38.561Z,101857.09
2023-05-14T14:40:08.510Z,101842.72
2023-05-14T14:42:37.170Z,101840.03
2023-05-14T14:45:06.204Z,101837.34
2023-05-14T14:47:34.304Z,101831.34
2023-05-14T14:50:04.242Z,101821.75
2023-05-14T14:52:36.614Z,101840.03
2023-05-14T14:55:05.960Z,101834.63
2023-05-14T14:57:34.011Z,101822.97
2023-05-14T15:00:07.008Z,101830.09
2023-05-14T15:02:35.469Z,101830.25
2023-05-14T15:05:06.068Z,101829.38
2023-05-14T15:07:34.109Z,101826.53
2023-05-14T15:10:02.104Z,101825.66
2023-05-14T15:12:30.329Z,101827.41
2023-05-14T15:14:58.796Z,101823.84
2023-05-14T15:17:26.920Z,101825.66
2023-05-14T15:19:55.303Z,101824.69
2023-05-14T15:22:27.467Z,101814.03
2023-05-14T15:24:55.486Z,101811.19
2023-05-14T15:27:23.667Z,101807.88
2023-05-14T15:29:51.681Z,101807.63
2023-05-14T15:32:19.745Z,101808.50
2023-05-14T15:34:47.801Z,101795.13
2023-05-14T15:37:15.848Z,101801.38
2023-05-14T15:39:45.356Z,101804.94
2023-05-14T15:42:13.602Z,101810.34
2023-05-14T15:44:41.692Z,101793.53
2023-05-14T15:47:09.840Z,101797.84
2023-05-14T15:49:37.834Z,101798.81
2023-05-14T15:52:06.152Z,101789.13
2023-05-14T15:54:34.190Z,101799.78
2023-05-14T15:57:03.657Z,101798.94
2023-05-14T15:59:31.623Z,101790.94
2023-05-14T16:01:59.811Z,101785.69
2023-05-14T16:04:27.848Z,101788.38
2023-05-14T16:06:55.851Z,101781.38
2023-05-14T16:09:23.906Z,101783.09
2023-05-14T16:11:51.935Z,101781.25
2023-05-14T16:14:24.119Z,101757.78
2023-05-14T16:16:52.238Z,101778.69
2023-05-14T16:19:20.858Z,101776.00
2023-05-14T16:21:48.973Z,101769.72
2023-05-14T16:24:19.003Z,101769.59
2023-05-14T16:26:47.117Z,101762.50
2023-05-14T16:29:15.124Z,101766.16
2023-05-14T16:31:44.766Z,101755.38
2023-05-14T16:34:12.840Z,101756.47
2023-05-14T16:36:41.095Z,101758.19
2023-05-14T16:39:09.168Z,101759.16
2023-05-14T16:41:37.172Z,101764.56
2023-05-14T16:44:05.388Z,101760.03
2023-05-14T16:46:34.073Z,101751.94
2023-05-14T16:49:03.640Z,101756.47
2023-05-14T16:51:31.729Z,101757.31
2023-05-14T16:53:59.770Z,101752.91
2023-05-14T16:56:27.925Z,101753.97
2023-05-14T16:58:55.852Z,101761.88
2023-05-14T17:01:24.026Z,101754.63
2023-05-14T17:03:52.055Z,101755.59
2023-05-14T17:06:21.343Z,101753.75
2023-05-14T17:08:52.174Z,101756.47
2023-05-14T17:11:21.085Z,101750.34
2023-05-14T17:13:49.022Z,101746.78
2023-05-14T17:16:17.117Z,101748.50
2023-05-14T17:18:45.956Z,101753.91
2023-05-14T17:21:14.089Z,101760.28
2023-05-14T17:23:43.515Z,101743.53
2023-05-14T17:26:12.098Z,101747.09
2023-05-14T17:28:40.062Z,101743.53
2023-05-14T17:31:08.377Z,101753.09
2023-05-14T17:33:36.644Z,101756.66
2023-05-14T17:36:05.308Z,101758.50
2023-05-14T17:38:33.253Z,101750.53
2023-05-14T17:41:02.678Z,101756.81
2023-05-14T17:43:30.630Z,101746.97
2023-05-14T17:45:58.766Z,101746.97
2023-05-14T17:48:26.823Z,101746.09
2023-05-14T17:50:58.210Z,101749.69
2023-05-14T17:53:26.328Z,101747.09
2023-05-14T17:55:54.409Z,101747.22
2023-05-14T17:58:23.855Z,101755.31
2023-05-14T18:00:51.892Z,101759.88
2023-05-14T18:03:20.308Z,101751.00
2023-05-14T18:05:48.475Z,101743.91
2023-05-14T18:08:16.466Z,101755.59
2023-05-14T18:10:44.509Z,101751.16
2023-05-14T18:13:12.484Z,101754.81
2023-05-14T18:15:41.946Z,101753.94
2023-05-14T18:18:10.232Z,101756.78
2023-05-14T18:20:38.324Z,101748.19
2023-05-14T18:23:06.303Z,101756.91
2023-05-14T18:25:35.036Z,101770.41
2023-05-14T18:28:03.155Z,101765.09
2023-05-14T18:30:31.261Z,101765.25
2023-05-14T18:33:00.758Z,101759.84
2023-05-14T18:35:28.723Z,101768.03
2023-05-14T18:37:56.625Z,101764.63
2023-05-14T18:40:24.622Z,101766.56
2023-05-14T18:42:52.750Z,101765.63
2023-05-14T18:45:21.606Z,101775.63
2023-05-14T18:47:49.701Z,101775.63
2023-05-14T18:50:19.116Z,101762.50
2023-05-14T18:52:47.239Z,101773.16
2023-05-14T18:55:15.327Z,101769.50
2023-05-14T18:57:43.321Z,101770.47
2023-05-14T19:00:12.809Z,101760.69
2023-05-14T19:02:40.918Z,101766.19
2023-05-14T19:05:09.469Z,101763.63
2023-05-14T19:07:40.773Z,101767.28
2023-05-14T19:10:10.214Z,101778.06
2023-05-14T19:12:38.210Z,101766.78
2023-05-14T19:15:07.305Z,101772.94
2023-05-14T19:17:35.373Z,101763.47
2023-05-14T19:20:04.400Z,101763.34
2023-05-14T19:22:32.416Z,101745.28
2023-05-14T19:25:01.816Z,101740.50
2023-05-14T19:27:30.405Z,101738.03
2023-05-14T19:29:58.402Z,101761.88
2023-05-14T19:32:26.498Z,101763.81
2023-05-14T19:34:54.564Z,101764.91
2023-05-14T19:37:22.913Z,101759.88
2023-05-14T19:39:53.820Z,101754.63
2023-05-14T19:42:24.923Z,101764.16
2023-05-14T19:44:53.093Z,101764.31
2023-05-14T19:47:21.230Z,101760.00
2023-05-14T19:49:49.121Z,101754.72
2023-05-14T19:52:17.113Z,101763.78
2023-05-14T19:54:45.111Z,101755.06
2023-05-14T19:57:13.157Z,101758.63
2023-05-14T19:59:42.596Z,101759.97
2023-05-14T20:02:12.417Z,101762.53
2023-05-14T20:04:40.872Z,101755.00
2023-05-14T20:07:10.038Z,101762.78
2023-05-14T20:09:38.148Z,101755.84
2023-05-14T20:12:06.712Z,101754.88
2023-05-14T20:14:34.753Z,101760.50
2023-05-14T20:17:04.563Z,101753.50
2023-05-14T20:19:32.608Z,101767.84
2023-05-14T20:22:00.536Z,101764.41
2023-05-14T20:24:28.968Z,101763.44
2023-05-14T20:26:57.232Z,101759.88
2023-05-14T20:29:25.310Z,101751.28
2023-05-14T20:31:53.435Z,101758.16
2023-05-14T20:34:22.826Z,101755.56
2023-05-14T20:36:51.899Z,101754.59
2023-05-14T20:39:19.902Z,101760.88
2023-05-14T20:41:47.958Z,101736.66
2023-05-14T20:44:16.437Z,101752.00
2023-05-14T20:46:45.880Z,101760.00
2023-05-14T20:49:15.742Z,101729.78
2023-05-14T20:51:45.218Z,101694.41
2023-05-14T20:54:13.185Z,101755.56
2023-05-14T20:56:41.282Z,101754.59
2023-05-14T20:59:09.230Z,101749.22
2023-05-14T21:01:37.262Z,101748.47
2023-05-14T21:04:06.238Z,101749.31
2023-05-14T21:06:34.388Z,101744.28
2023-05-14T21:09:03.758Z,101744.78
2023-05-14T21:11:31.866Z,101747.72
2023-05-14T21:13:59.823Z,101748.47
2023-05-14T21:16:28.052Z,101749.44
2023-05-14T21:18:56.227Z,101751.19
2023-05-14T21:21:24.369Z,101751.28
2023-05-14T21:23:52.421Z,101748.56
2023-05-14T21:26:22.810Z,101747.63
2023-05-14T21:28:50.716Z,101749.44
2023-05-14T21:31:18.816Z,101753.09
2023-05-14T21:33:46.775Z,101695.19
2023-05-14T21:36:14.902Z,101748.56
2023-05-14T21:38:42.883Z,101734.59
2023-05-14T21:41:10.969Z,101748.72
2023-05-14T21:43:40.708Z,101744.28
2023-05-14T21:46:08.866Z,101735.31
2023-05-14T21:48:37.046Z,101733.50
2023-05-14T21:51:05.703Z,101730.06
2023-05-14T21:53:34.683Z,101732.63
2023-05-14T21:56:02.721Z,101734.50
2023-05-14T21:58:30.726Z,101729.19
2023-05-14T22:01:00.359Z,101734.50
2023-05-14T22:03:28.474Z,101670.22
2023-05-14T22:05:56.498Z,101734.94
2023-05-14T22:08:24.845Z,101727.97
2023-05-14T22:10:52.825Z,101731.75
2023-05-14T22:13:20.970Z,101730.00
2023-05-14T22:15:51.291Z,101734.66
2023-05-14T22:18:22.613Z,101732.31
2023-05-14T22:20:51.224Z,101730.59
2023-05-14T22:23:19.260Z,101737.94
2023-05-14T22:25:47.366Z,101717.81
2023-05-14T22:28:15.424Z,101731.03
2023-05-14T22:30:43.346Z,101728.47
2023-05-14T22:33:11.574Z,101730.53
2023-05-14T22:35:41.008Z,101730.66
2023-05-14T22:38:09.161Z,101724.63
2023-05-14T22:40:37.144Z,101721.19
2023-05-14T22:43:05.035Z,101721.31
2023-05-14T22:45:33.115Z,101724.09
2023-05-14T22:48:01.138Z,101719.72
2023-05-14T22:50:29.167Z,101700.00
2023-05-14T22:52:58.525Z,101712.72
2023-05-14T22:55:26.910Z,101714.63
2023-05-14T22:57:55.264Z,101709.47
2023-05-14T23:00:23.797Z,101714.03
2023-05-14T23:02:52.005Z,101704.34
2023-05-14T23:05:20.064Z,101705.28
2023-05-14T23:07:48.072Z,101702.56
2023-05-14T23:10:17.596Z,101697.31
2023-05-14T23:12:45.623Z,101700.09
2023-05-14T23:15:13.596Z,101687.72
2023-05-14T23:17:41.963Z,101700.31
2023-05-14T23:20:12.574Z,101698.63
2023-05-14T23:22:40.780Z,101687.22
2023-05-14T23:30:06.831Z,101683.78
2023-05-14T23:32:34.863Z,101680.56
2023-05-14T23:35:03.107Z,101677.88
2023-05-14T23:37:31.133Z,101685.09
2023-05-14T23:39:59.139Z,101687.78
2023-05-14T23:42:27.177Z,101678.97
2023-05-14T23:44:56.621Z,101679.84
2023-05-14T23:47:24.759Z,101676.50
2023-05-14T23:49:52.739Z,101672.84
2023-05-14T23:52:20.683Z,101668.75
2023-05-14T23:54:48.607Z,101663.13
2023-05-14T23:57:16.688Z,101661.44
2023-05-14T23:59:44.663Z,101656.03
